sensor_id;sensor_type;location;lat;lon;timestamp;pressure;altitude;pressure_sealevel;temperature;humidity
68965;BME280;56017;48.680;8.998;2023-04-23T00:00:22;96090;;;14;76.5
68965;BME280;56017;48.680;8.998;2023-04-23T00:02:53;96090;;;14;76.5
68965;BME280;56017;48.680;8.998;2023-04-23T00:05:25;96090;;;14;76.5
68965;BME280;56017;48.680;8.998;2023-04-23T00:07:55;96090;;;14;76.5
68965;BME280;56017;48.680;8.998;2023-04-23T00:10:26;96090;;;14;76.5
68965;BME280;56017;48.680;8.998;2023-04-23T00:12:57;96090;;;14;76.5
68965;BME280;56017;48.680;8.998;2023-04-23T00:15:29;96090;;;14.1;76.5
68965;BME280;56017;48.680;8.998;2023-04-23T00:17:59;96090;;;14.1;76.5
68965;BME280;56017;48.680;8.998;2023-04-23T00:20:30;96090;;;14;76.5
68965;BME280;56017;48.680;8.998;2023-04-23T00:23:01;96090;;;13.9;76.5
68965;BME280;56017;48.680;8.998;2023-04-23T00:25:38;96100;;;13.9;77
68965;BME280;56017;48.680;8.998;2023-04-23T00:28:09;96090;;;13.9;77
68965;BME280;56017;48.680;8.998;2023-04-23T00:30:41;96090;;;13.9;76.5
68965;BME280;56017;48.680;8.998;2023-04-23T00:33:05;96090;;;14;76.5
68965;BME280;56017;48.680;8.998;2023-04-23T00:35:36;96100;;;14;76.5
68965;BME280;56017;48.680;8.998;2023-04-23T00:38:07;96100;;;14;76.5
68965;BME280;56017;48.680;8.998;2023-04-23T00:40:38;96100;;;14;76.5
68965;BME280;56017;48.680;8.998;2023-04-23T00:43:09;96100;;;14;76.5
68965;BME280;56017;48.680;8.998;2023-04-23T00:45:40;96110;;;14;76.5
68965;BME280;56017;48.680;8.998;2023-04-23T00:48:11;96110;;;14;76.5
68965;BME280;56017;48.680;8.998;2023-04-23T00:50:42;96110;;;13.9;76.5
68965;BME280;56017;48.680;8.998;2023-04-23T00:53:19;96110;;;13.8;76.5
68965;BME280;56017;48.680;8.998;2023-04-23T00:55:44;96110;;;13.8;76.5
68965;BME280;56017;48.680;8.998;2023-04-23T00:58:15;96110;;;13.8;77
68965;BME280;56017;48.680;8.998;2023-04-23T01:00:46;96110;;;13.7;77
68965;BME280;56017;48.680;8.998;2023-04-23T01:03:16;96110;;;13.7;76.5
68965;BME280;56017;48.680;8.998;2023-04-23T01:05:54;96110;;;13.7;77
68965;BME280;56017;48.680;8.998;2023-04-23T01:08:19;96110;;;13.7;77
68965;BME280;56017;48.680;8.998;2023-04-23T01:10:50;96110;;;13.6;77
68965;BME280;56017;48.680;8.998;2023-04-23T01:13:20;96110;;;13.6;77
68965;BME280;56017;48.680;8.998;2023-04-23T01:15:52;96110;;;13.6;77
68965;BME280;56017;48.680;8.998;2023-04-23T01:18:22;96120;;;13.6;77
68965;BME280;56017;48.680;8.998;2023-04-23T01:20:54;96120;;;13.6;77
68965;BME280;56017;48.680;8.998;2023-04-23T01:23:24;96130;;;13.5;77
68965;BME280;56017;48.680;8.998;2023-04-23T01:25:55;96120;;;13.5;77
68965;BME280;56017;48.680;8.998;2023-04-23T01:31:04;96120;;;13.5;77
68965;BME280;56017;48.680;8.998;2023-04-23T01:33:28;96120;;;13.6;76.5
68965;BME280;56017;48.680;8.998;2023-04-23T01:35:59;96120;;;13.6;76.5
68965;BME280;56017;48.680;8.998;2023-04-23T01:38:30;96120;;;13.6;76.5
68965;BME280;56017;48.680;8.998;2023-04-23T01:41:01;96130;;;13.5;76.5
68965;BME280;56017;48.680;8.998;2023-04-23T01:43:32;96130;;;13.4;77
68965;BME280;56017;48.680;8.998;2023-04-23T01:46:04;96130;;;13.3;77
68965;BME280;56017;48.680;8.998;2023-04-23T01:48:35;96120;;;13.3;77
68965;BME280;56017;48.680;8.998;2023-04-23T01:51:05;96120;;;13.4;76.5
68965;BME280;56017;48.680;8.998;2023-04-23T01:53:43;96130;;;13.4;76.5
68965;BME280;56017;48.680;8.998;2023-04-23T01:56:07;96120;;;13.4;76.5
68965;BME280;56017;48.680;8.998;2023-04-23T01:58:38;96110;;;13.5;76.5
68965;BME280;56017;48.680;8.998;2023-04-23T02:01:09;96120;;;13.4;76.5
68965;BME280;56017;48.680;8.998;2023-04-23T02:03:40;96140;;;13.4;76.5
68965;BME280;56017;48.680;8.998;2023-04-23T02:06:11;96150;;;13.4;76.5
68965;BME280;56017;48.680;8.998;2023-04-23T02:08:42;96140;;;13.4;76.5
68965;BME280;56017;48.680;8.998;2023-04-23T02:11:13;96150;;;13.3;76.5
68965;BME280;56017;48.680;8.998;2023-04-23T02:13:44;96150;;;13.3;76.5
68965;BME280;56017;48.680;8.998;2023-04-23T02:16:21;96150;;;13.2;76.5
68965;BME280;56017;48.680;8.998;2023-04-23T02:18:46;96150;;;13.2;76.5
68965;BME280;56017;48.680;8.998;2023-04-23T02:21:17;96150;;;13.1;76.5
68965;BME280;56017;48.680;8.998;2023-04-23T02:23:48;96150;;;13;76.5
68965;BME280;56017;48.680;8.998;2023-04-23T02:26:19;96140;;;12.8;76.5
68965;BME280;56017;48.680;8.998;2023-04-23T02:28:50;96140;;;12.5;77
68965;BME280;56017;48.680;8.998;2023-04-23T02:31:21;96140;;;12.3;77
68965;BME280;56017;48.680;8.998;2023-04-23T02:33:52;96140;;;12.2;77.5
68965;BME280;56017;48.680;8.998;2023-04-23T02:36:22;96140;;;12.1;77.5
68965;BME280;56017;48.680;8.998;2023-04-23T02:39:00;96130;;;12;77.5
68965;BME280;56017;48.680;8.998;2023-04-23T02:41:31;96130;;;12;77.5
68965;BME280;56017;48.680;8.998;2023-04-23T02:43:56;96140;;;11.9;77
68965;BME280;56017;48.680;8.998;2023-04-23T02:46:26;96140;;;11.8;77.5
68965;BME280;56017;48.680;8.998;2023-04-23T02:48:57;96150;;;11.8;77.5
68965;BME280;56017;48.680;8.998;2023-04-23T02:51:28;96150;;;11.7;77.5
68965;BME280;56017;48.680;8.998;2023-04-23T02:53:59;96150;;;11.7;77.5
68965;BME280;56017;48.680;8.998;2023-04-23T02:59:01;96150;;;11.6;77.5
68965;BME280;56017;48.680;8.998;2023-04-23T03:04:03;96150;;;11.6;77
68965;BME280;56017;48.680;8.998;2023-04-23T03:06:33;96150;;;11.6;77
68965;BME280;56017;48.680;8.998;2023-04-23T03:09:04;96150;;;11.6;77
68965;BME280;56017;48.680;8.998;2023-04-23T03:11:34;96150;;;11.6;77
68965;BME280;56017;48.680;8.998;2023-04-23T03:14:06;96140;;;11.6;77
68965;BME280;56017;48.680;8.998;2023-04-23T03:16:36;96140;;;11.6;77
68965;BME280;56017;48.680;8.998;2023-04-23T03:19:07;96140;;;11.7;77
68965;BME280;56017;48.680;8.998;2023-04-23T03:21:38;96140;;;11.7;77
68965;BME280;56017;48.680;8.998;2023-04-23T03:24:11;96140;;;11.7;77
68965;BME280;56017;48.680;8.998;2023-04-23T03:26:40;96130;;;11.8;77
68965;BME280;56017;48.680;8.998;2023-04-23T03:29:17;96130;;;11.8;76.5
68965;BME280;56017;48.680;8.998;2023-04-23T03:31:53;96140;;;11.8;76.5
68965;BME280;56017;48.680;8.998;2023-04-23T03:36:41;96130;;;11.9;76.5
68965;BME280;56017;48.680;8.998;2023-04-23T03:39:12;96130;;;11.9;76.5
68965;BME280;56017;48.680;8.998;2023-04-23T03:41:43;96130;;;11.9;76.5
68965;BME280;56017;48.680;8.998;2023-04-23T03:44:14;96130;;;11.9;76
68965;BME280;56017;48.680;8.998;2023-04-23T03:47:05;96130;;;12;76.5
68965;BME280;56017;48.680;8.998;2023-04-23T03:49:22;96140;;;12;76
68965;BME280;56017;48.680;8.998;2023-04-23T03:51:52;96140;;;12.1;76
68965;BME280;56017;48.680;8.998;2023-04-23T03:56:45;96150;;;12;76
68965;BME280;56017;48.680;8.998;2023-04-23T03:59:16;96140;;;12;76
68965;BME280;56017;48.680;8.998;2023-04-23T04:01:47;96140;;;12.1;76
68965;BME280;56017;48.680;8.998;2023-04-23T04:04:18;96140;;;12.1;76
68965;BME280;56017;48.680;8.998;2023-04-23T04:06:49;96150;;;12.1;76
68965;BME280;56017;48.680;8.998;2023-04-23T04:09:20;96150;;;12.1;76
68965;BME280;56017;48.680;8.998;2023-04-23T04:11:52;96150;;;12;76
68965;BME280;56017;48.680;8.998;2023-04-23T04:14:22;96140;;;11.9;76
68965;BME280;56017;48.680;8.998;2023-04-23T04:16:53;96140;;;11.9;76
68965;BME280;56017;48.680;8.998;2023-04-23T04:19:24;96140;;;11.9;76.5
68965;BME280;56017;48.680;8.998;2023-04-23T04:21:55;96140;;;11.9;76.5
68965;BME280;56017;48.680;8.998;2023-04-23T04:24:26;96140;;;11.9;76.5
68965;BME280;56017;48.680;8.998;2023-04-23T04:26:58;96140;;;11.9;76.5
68965;BME280;56017;48.680;8.998;2023-04-23T04:31:59;96140;;;11.9;76.5
68965;BME280;56017;48.680;8.998;2023-04-23T04:34:30;96140;;;11.9;76.5
68965;BME280;56017;48.680;8.998;2023-04-23T04:37:01;96140;;;11.9;76.5
68965;BME280;56017;48.680;8.998;2023-04-23T04:39:32;96140;;;11.9;76.5
68965;BME280;56017;48.680;8.998;2023-04-23T04:41:56;96140;;;11.9;76.5
68965;BME280;56017;48.680;8.998;2023-04-23T04:44:27;96140;;;11.9;76.5
68965;BME280;56017;48.680;8.998;2023-04-23T04:46:58;96140;;;11.9;76.5
68965;BME280;56017;48.680;8.998;2023-04-23T04:51:59;96140;;;11.9;76.5
68965;BME280;56017;48.680;8.998;2023-04-23T04:54:30;96130;;;11.9;76.5
68965;BME280;56017;48.680;8.998;2023-04-23T04:57:01;96130;;;12;76.5
68965;BME280;56017;48.680;8.998;2023-04-23T05:04:46;96130;;;12.1;76.5
68965;BME280;56017;48.680;8.998;2023-04-23T05:07:22;96140;;;12.1;76.5
68965;BME280;56017;48.680;8.998;2023-04-23T05:09:39;96140;;;12.2;76.5
68965;BME280;56017;48.680;8.998;2023-04-23T05:12:10;96140;;;12.3;76
68965;BME280;56017;48.680;8.998;2023-04-23T05:14:41;96130;;;12.4;76
68965;BME280;56017;48.680;8.998;2023-04-23T05:17:12;96130;;;12.4;75.5
68965;BME280;56017;48.680;8.998;2023-04-23T05:19:43;96130;;;12.4;75.5
68965;BME280;56017;48.680;8.998;2023-04-23T05:22:14;96130;;;12.4;76
68965;BME280;56017;48.680;8.998;2023-04-23T05:24:45;96140;;;12.4;76
68965;BME280;56017;48.680;8.998;2023-04-23T05:27:16;96150;;;12.5;76
68965;BME280;56017;48.680;8.998;2023-04-23T05:29:47;96150;;;12.5;76
68965;BME280;56017;48.680;8.998;2023-04-23T05:32:18;96140;;;12.6;75.5
68965;BME280;56017;48.680;8.998;2023-04-23T05:34:49;96140;;;12.4;76
68965;BME280;56017;48.680;8.998;2023-04-23T05:37:20;96140;;;12.3;76
68965;BME280;56017;48.680;8.998;2023-04-23T05:42:22;96130;;;12.2;76.5
68965;BME280;56017;48.680;8.998;2023-04-23T05:44:53;96140;;;12.2;76.5
68965;BME280;56017;48.680;8.998;2023-04-23T05:47:31;96140;;;12.1;76.5
68965;BME280;56017;48.680;8.998;2023-04-23T05:49:55;96140;;;12.1;76.5
68965;BME280;56017;48.680;8.998;2023-04-23T05:55:09;96140;;;12.2;76.5
68965;BME280;56017;48.680;8.998;2023-04-23T05:57:35;96150;;;12.3;76.5
68965;BME280;56017;48.680;8.998;2023-04-23T06:00:10;96140;;;12.3;76.5
68965;BME280;56017;48.680;8.998;2023-04-23T06:02:34;96140;;;12.4;76.5
68965;BME280;56017;48.680;8.998;2023-04-23T06:04:58;96150;;;12.5;76.5
68965;BME280;56017;48.680;8.998;2023-04-23T06:07:29;96150;;;12.5;76.5
68965;BME280;56017;48.680;8.998;2023-04-23T06:10:00;96150;;;12.5;76.5
68965;BME280;56017;48.680;8.998;2023-04-23T06:12:31;96140;;;12.6;76.5
68965;BME280;56017;48.680;8.998;2023-04-23T06:14:55;96150;;;12.6;76.5
68965;BME280;56017;48.680;8.998;2023-04-23T06:19:56;96150;;;12.8;76
68965;BME280;56017;48.680;8.998;2023-04-23T06:22:27;96150;;;12.8;76
68965;BME280;56017;48.680;8.998;2023-04-23T06:24:58;96150;;;12.9;76
68965;BME280;56017;48.680;8.998;2023-04-23T06:27:28;96150;;;12.9;76
68965;BME280;56017;48.680;8.998;2023-04-23T06:32:31;96140;;;12.9;76
68965;BME280;56017;48.680;8.998;2023-04-23T06:35:01;96140;;;12.9;76
68965;BME280;56017;48.680;8.998;2023-04-23T06:42:46;96140;;;12.9;76
68965;BME280;56017;48.680;8.998;2023-04-23T06:45:22;96140;;;13;76
68965;BME280;56017;48.680;8.998;2023-04-23T06:50:10;96140;;;13.1;76
68965;BME280;56017;48.680;8.998;2023-04-23T06:52:41;96140;;;13.2;76
68965;BME280;56017;48.680;8.998;2023-04-23T06:55:12;96130;;;13.2;76
68965;BME280;56017;48.680;8.998;2023-04-23T06:57:43;96130;;;13.2;76
68965;BME280;56017;48.680;8.998;2023-04-23T07:00:34;96130;;;13.3;76
68965;BME280;56017;48.680;8.998;2023-04-23T07:05:34;96120;;;13.2;76
68965;BME280;56017;48.680;8.998;2023-04-23T07:07:51;96120;;;13.4;76
68965;BME280;56017;48.680;8.998;2023-04-23T07:10:15;96120;;;13.6;76
68965;BME280;56017;48.680;8.998;2023-04-23T07:12:46;96120;;;13.8;76
68965;BME280;56017;48.680;8.998;2023-04-23T07:15:17;96120;;;14;75.5
68965;BME280;56017;48.680;8.998;2023-04-23T07:17:48;96120;;;13.9;75.5
68965;BME280;56017;48.680;8.998;2023-04-23T07:20:19;96120;;;13.9;75.5
68965;BME280;56017;48.680;8.998;2023-04-23T07:25:21;96120;;;14;75.5
68965;BME280;56017;48.680;8.998;2023-04-23T07:27:52;96130;;;14;75.5
68965;BME280;56017;48.680;8.998;2023-04-23T07:30:23;96130;;;14.1;75.5
68965;BME280;56017;48.680;8.998;2023-04-23T07:32:54;96120;;;14.3;75.5
68965;BME280;56017;48.680;8.998;2023-04-23T07:35:25;96120;;;14.3;75
68965;BME280;56017;48.680;8.998;2023-04-23T07:37:56;96120;;;14.2;75
68965;BME280;56017;48.680;8.998;2023-04-23T07:40:26;96110;;;14;75.5
68965;BME280;56017;48.680;8.998;2023-04-23T07:42:57;96110;;;13.9;75.5
68965;BME280;56017;48.680;8.998;2023-04-23T07:45:28;96100;;;13.8;76
68965;BME280;56017;48.680;8.998;2023-04-23T07:47:59;96100;;;13.8;76
68965;BME280;56017;48.680;8.998;2023-04-23T07:50:30;96100;;;13.8;76
68965;BME280;56017;48.680;8.998;2023-04-23T07:53:01;96100;;;13.9;76.5
68965;BME280;56017;48.680;8.998;2023-04-23T07:55:24;96100;;;14;76
68965;BME280;56017;48.680;8.998;2023-04-23T07:58:08;96100;;;14.1;76
68965;BME280;56017;48.680;8.998;2023-04-23T08:00:45;96100;;;14.3;76
68965;BME280;56017;48.680;8.998;2023-04-23T08:03:09;96090;;;14.5;75.5
68965;BME280;56017;48.680;8.998;2023-04-23T08:05:46;96090;;;14.5;75.5
68965;BME280;56017;48.680;8.998;2023-04-23T08:08:10;96090;;;14.4;76
68965;BME280;56017;48.680;8.998;2023-04-23T08:10:46;96090;;;14.5;76
68965;BME280;56017;48.680;8.998;2023-04-23T08:13:09;96090;;;14.5;76
68965;BME280;56017;48.680;8.998;2023-04-23T08:15:46;96090;;;14.6;75.5
68965;BME280;56017;48.680;8.998;2023-04-23T08:18:04;96090;;;14.8;75.5
68965;BME280;56017;48.680;8.998;2023-04-23T08:20:35;96080;;;14.9;75
68965;BME280;56017;48.680;8.998;2023-04-23T08:23:06;96080;;;14.8;75
68965;BME280;56017;48.680;8.998;2023-04-23T08:25:36;96080;;;15;75.5
68965;BME280;56017;48.680;8.998;2023-04-23T08:28:13;96080;;;15.1;75
68965;BME280;56017;48.680;8.998;2023-04-23T08:30:57;96080;;;15;75
68965;BME280;56017;48.680;8.998;2023-04-23T08:33:14;96070;;;15.1;75
68965;BME280;56017;48.680;8.998;2023-04-23T08:38:08;96080;;;15.4;74.5
68965;BME280;56017;48.680;8.998;2023-04-23T08:40:40;96080;;;15.3;75
68965;BME280;56017;48.680;8.998;2023-04-23T08:43:13;96070;;;15.3;75
68965;BME280;56017;48.680;8.998;2023-04-23T08:45:47;96070;;;15.4;75
68965;BME280;56017;48.680;8.998;2023-04-23T08:48:11;96070;;;15.6;75
68965;BME280;56017;48.680;8.998;2023-04-23T08:53:26;96060;;;15.9;74.5
68965;BME280;56017;48.680;8.998;2023-04-23T08:55:49;96060;;;16;74.5
68965;BME280;56017;48.680;8.998;2023-04-23T08:58:20;96060;;;16;74.5
68965;BME280;56017;48.680;8.998;2023-04-23T09:01:03;96060;;;16.1;74.5
68965;BME280;56017;48.680;8.998;2023-04-23T09:03:20;96060;;;16;74
68965;BME280;56017;48.680;8.998;2023-04-23T09:08:14;96060;;;15.9;74.5
68965;BME280;56017;48.680;8.998;2023-04-23T09:10:45;96050;;;16;74.5
68965;BME280;56017;48.680;8.998;2023-04-23T09:13:17;96050;;;16;74.5
68965;BME280;56017;48.680;8.998;2023-04-23T09:15:47;96040;;;16.1;74.5
68965;BME280;56017;48.680;8.998;2023-04-23T09:18:24;96030;;;16.4;74.5
68965;BME280;56017;48.680;8.998;2023-04-23T09:23:31;96030;;;17;73.5
68965;BME280;56017;48.680;8.998;2023-04-23T09:26:08;96030;;;17.1;73.5
68965;BME280;56017;48.680;8.998;2023-04-23T09:28:40;96020;;;17.2;73.5
68965;BME280;56017;48.680;8.998;2023-04-23T09:31:04;96010;;;17.3;73.5
68965;BME280;56017;48.680;8.998;2023-04-23T09:33:25;96010;;;17.3;74
68965;BME280;56017;48.680;8.998;2023-04-23T09:36:09;96010;;;17.4;73.5
68965;BME280;56017;48.680;8.998;2023-04-23T09:38:19;96000;;;17.5;74
68965;BME280;56017;48.680;8.998;2023-04-23T09:40:50;96010;;;17.9;73.5
68965;BME280;56017;48.680;8.998;2023-04-23T09:43:21;96010;;;18;73.5
68965;BME280;56017;48.680;8.998;2023-04-23T09:45:52;96000;;;18.2;73.5
68965;BME280;56017;48.680;8.998;2023-04-23T09:48:16;96000;;;18.7;73.5
68965;BME280;56017;48.680;8.998;2023-04-23T09:50:46;96000;;;19;72.5
68965;BME280;56017;48.680;8.998;2023-04-23T09:53:17;96000;;;19.5;73.5
68965;BME280;56017;48.680;8.998;2023-04-23T09:55:48;95990;;;20.4;74.5
68965;BME280;56017;48.680;8.998;2023-04-23T10:00:49;95980;;;21.2;74
68965;BME280;56017;48.680;8.998;2023-04-23T10:03:25;95980;;;21.6;72
68965;BME280;56017;48.680;8.998;2023-04-23T10:08:28;95970;;;21.6;70.5
68965;BME280;56017;48.680;8.998;2023-04-23T10:11:00;95960;;;21.5;70.5
68965;BME280;56017;48.680;8.998;2023-04-23T10:13:30;95960;;;21.2;70
68965;BME280;56017;48.680;8.998;2023-04-23T10:16:01;95960;;;20.4;70.5
68965;BME280;56017;48.680;8.998;2023-04-23T10:18:32;95960;;;20.1;71
68965;BME280;56017;48.680;8.998;2023-04-23T10:23:40;95960;;;20.2;72
68965;BME280;56017;48.680;8.998;2023-04-23T10:26:16;95950;;;20.4;72
68965;BME280;56017;48.680;8.998;2023-04-23T10:28:46;95950;;;20.3;71
68965;BME280;56017;48.680;8.998;2023-04-23T10:33:34;95950;;;19.8;72
68965;BME280;56017;48.680;8.998;2023-04-23T10:36:05;95950;;;19.9;71.5
68965;BME280;56017;48.680;8.998;2023-04-23T10:38:36;95950;;;19.5;71.5
68965;BME280;56017;48.680;8.998;2023-04-23T10:41:07;95940;;;19.2;72.5
68965;BME280;56017;48.680;8.998;2023-04-23T10:43:38;95930;;;19.6;73
68965;BME280;56017;48.680;8.998;2023-04-23T10:48:50;95930;;;19.5;72.5
68965;BME280;56017;48.680;8.998;2023-04-23T10:51:11;95920;;;19.5;72.5
68965;BME280;56017;48.680;8.998;2023-04-23T10:53:42;95920;;;19.6;72.5
68965;BME280;56017;48.680;8.998;2023-04-23T10:58:48;95910;;;20.2;72
68965;BME280;56017;48.680;8.998;2023-04-23T11:01:15;95910;;;20.3;72
68965;BME280;56017;48.680;8.998;2023-04-23T11:06:18;95900;;;20.5;72
68965;BME280;56017;48.680;8.998;2023-04-23T11:11:18;95910;;;19.7;73.5
68965;BME280;56017;48.680;8.998;2023-04-23T11:13:50;95900;;;20;73
68965;BME280;56017;48.680;8.998;2023-04-23T11:16:26;95900;;;19.9;73
68965;BME280;56017;48.680;8.998;2023-04-23T11:18:59;95900;;;20.1;73
68965;BME280;56017;48.680;8.998;2023-04-23T11:21:22;95890;;;20.7;72.5
68965;BME280;56017;48.680;8.998;2023-04-23T11:23:53;95890;;;20.8;72
68965;BME280;56017;48.680;8.998;2023-04-23T11:26:24;95880;;;20.4;71.5
68965;BME280;56017;48.680;8.998;2023-04-23T11:28:55;95880;;;20.1;72.5
68965;BME280;56017;48.680;8.998;2023-04-23T11:31:27;95870;;;20;72.5
68965;BME280;56017;48.680;8.998;2023-04-23T11:33:57;95870;;;20;73
68965;BME280;56017;48.680;8.998;2023-04-23T11:36:27;95860;;;20.1;73
68965;BME280;56017;48.680;8.998;2023-04-23T11:38:58;95860;;;20.3;73
68965;BME280;56017;48.680;8.998;2023-04-23T11:41:36;95860;;;20.3;72.5
68965;BME280;56017;48.680;8.998;2023-04-23T11:44:00;95850;;;20.1;72.5
68965;BME280;56017;48.680;8.998;2023-04-23T11:46:32;95850;;;20;73
68965;BME280;56017;48.680;8.998;2023-04-23T11:49:02;95850;;;20.1;73.5
68965;BME280;56017;48.680;8.998;2023-04-23T11:51:34;95840;;;20.5;72.5
68965;BME280;56017;48.680;8.998;2023-04-23T11:54:04;95830;;;20.3;72
68965;BME280;56017;48.680;8.998;2023-04-23T11:56:36;95830;;;20.1;73
68965;BME280;56017;48.680;8.998;2023-04-23T11:59:06;95830;;;20.1;73
68965;BME280;56017;48.680;8.998;2023-04-23T12:01:39;95830;;;20.2;73
68965;BME280;56017;48.680;8.998;2023-04-23T12:04:10;95830;;;20.7;72.5
68965;BME280;56017;48.680;8.998;2023-04-23T12:06:40;95830;;;20.5;72
68965;BME280;56017;48.680;8.998;2023-04-23T12:09:11;95830;;;20.1;73
68965;BME280;56017;48.680;8.998;2023-04-23T12:11:48;95820;;;19.9;73
68965;BME280;56017;48.680;8.998;2023-04-23T12:14:13;95820;;;20.1;73.5
68965;BME280;56017;48.680;8.998;2023-04-23T12:16:44;95810;;;20.2;73
68965;BME280;56017;48.680;8.998;2023-04-23T12:19:16;95810;;;20.1;73
68965;BME280;56017;48.680;8.998;2023-04-23T12:21:50;95810;;;20;73.5
68965;BME280;56017;48.680;8.998;2023-04-23T12:24:16;95800;;;20.5;73
68965;BME280;56017;48.680;8.998;2023-04-23T12:29:18;95790;;;21.2;73
68965;BME280;56017;48.680;8.998;2023-04-23T12:34:26;95780;;;21.3;71.5
68965;BME280;56017;48.680;8.998;2023-04-23T12:36:57;95780;;;21.3;71.5
68965;BME280;56017;48.680;8.998;2023-04-23T12:39:24;95780;;;21.6;71.5
68965;BME280;56017;48.680;8.998;2023-04-23T12:42:00;95780;;;21.6;71
68965;BME280;56017;48.680;8.998;2023-04-23T12:44:24;95770;;;21.8;71
68965;BME280;56017;48.680;8.998;2023-04-23T12:46:57;95770;;;22.4;71
68965;BME280;56017;48.680;8.998;2023-04-23T12:49:34;95770;;;22.3;70
68965;BME280;56017;48.680;8.998;2023-04-23T12:51:58;95770;;;22.5;70.5
68965;BME280;56017;48.680;8.998;2023-04-23T12:54:29;95750;;;22.4;70
68965;BME280;56017;48.680;8.998;2023-04-23T12:56:59;95760;;;21.8;71
68965;BME280;56017;48.680;8.998;2023-04-23T12:59:30;95760;;;22.3;71
68965;BME280;56017;48.680;8.998;2023-04-23T13:02:01;95750;;;23.2;70
68965;BME280;56017;48.680;8.998;2023-04-23T13:04:38;95740;;;23.6;69
68965;BME280;56017;48.680;8.998;2023-04-23T13:09:33;95730;;;24.4;69
68965;BME280;56017;48.680;8.998;2023-04-23T13:12:04;95720;;;24.7;68
68965;BME280;56017;48.680;8.998;2023-04-23T13:14:42;95720;;;24.8;69
68965;BME280;56017;48.680;8.998;2023-04-23T13:17:07;95720;;;25.1;68.5
68965;BME280;56017;48.680;8.998;2023-04-23T13:19:37;95710;;;25.2;68.5
68965;BME280;56017;48.680;8.998;2023-04-23T13:22:09;95720;;;24.7;68
68965;BME280;56017;48.680;8.998;2023-04-23T13:24:39;95700;;;24;69
68965;BME280;56017;48.680;8.998;2023-04-23T13:27:11;95690;;;23.7;70.5
68965;BME280;56017;48.680;8.998;2023-04-23T13:29:41;95690;;;23.9;70
68965;BME280;56017;48.680;8.998;2023-04-23T13:32:12;95690;;;23.1;70.5
68965;BME280;56017;48.680;8.998;2023-04-23T13:34:43;95690;;;23.1;71.5
68965;BME280;56017;48.680;8.998;2023-04-23T13:37:14;95690;;;23.4;71
68965;BME280;56017;48.680;8.998;2023-04-23T13:39:45;95680;;;23.9;70.5
68965;BME280;56017;48.680;8.998;2023-04-23T13:47:23;95660;;;24.7;70.5
68965;BME280;56017;48.680;8.998;2023-04-23T13:52:25;95640;;;25.2;69
68965;BME280;56017;48.680;8.998;2023-04-23T13:59:56;95640;;;24.6;70
68965;BME280;56017;48.680;8.998;2023-04-23T14:02:40;95630;;;23.9;71
68965;BME280;56017;48.680;8.998;2023-04-23T14:04:57;95630;;;23.1;72.5
68965;BME280;56017;48.680;8.998;2023-04-23T14:09:51;95630;;;22.3;73
68965;BME280;56017;48.680;8.998;2023-04-23T14:12:22;95620;;;22.4;73.5
68965;BME280;56017;48.680;8.998;2023-04-23T14:14:54;95620;;;22.6;74
68965;BME280;56017;48.680;8.998;2023-04-23T14:17:24;95610;;;23.2;73
68965;BME280;56017;48.680;8.998;2023-04-23T14:19:55;95610;;;23.3;72.5
68965;BME280;56017;48.680;8.998;2023-04-23T14:22:26;95600;;;23.3;71.5
68965;BME280;56017;48.680;8.998;2023-04-23T14:25:01;95610;;;22.9;71.5
68965;BME280;56017;48.680;8.998;2023-04-23T14:27:31;95600;;;22.4;72
68965;BME280;56017;48.680;8.998;2023-04-23T14:30:01;95600;;;22.1;72
68965;BME280;56017;48.680;8.998;2023-04-23T14:32:41;95590;;;21.6;72.5
68965;BME280;56017;48.680;8.998;2023-04-23T14:35:01;95590;;;21.3;73
68965;BME280;56017;48.680;8.998;2023-04-23T14:37:32;95590;;;21;73
68965;BME280;56017;48.680;8.998;2023-04-23T14:40:03;95590;;;20.7;73.5
68965;BME280;56017;48.680;8.998;2023-04-23T14:42:34;95590;;;20.4;73.5
68965;BME280;56017;48.680;8.998;2023-04-23T14:45:05;95580;;;19.4;70
68965;BME280;56017;48.680;8.998;2023-04-23T14:47:36;95580;;;18.1;72.5
68965;BME280;56017;48.680;8.998;2023-04-23T14:50:07;95590;;;17.9;74.5
68965;BME280;56017;48.680;8.998;2023-04-23T14:52:38;95590;;;18.3;74.5
68965;BME280;56017;48.680;8.998;2023-04-23T14:55:10;95590;;;18.6;74.5
68965;BME280;56017;48.680;8.998;2023-04-23T15:00:11;95580;;;19;74
68965;BME280;56017;48.680;8.998;2023-04-23T15:02:42;95580;;;19;74
68965;BME280;56017;48.680;8.998;2023-04-23T15:05:12;95580;;;19.1;74
68965;BME280;56017;48.680;8.998;2023-04-23T15:07:43;95580;;;19;73.5
68965;BME280;56017;48.680;8.998;2023-04-23T15:10:14;95580;;;18.8;74
68965;BME280;56017;48.680;8.998;2023-04-23T15:12:53;95580;;;18.1;73.5
68965;BME280;56017;48.680;8.998;2023-04-23T15:17:47;95590;;;16.7;76
68965;BME280;56017;48.680;8.998;2023-04-23T15:22:56;95630;;;16.4;74
68965;BME280;56017;48.680;8.998;2023-04-23T15:25:26;95650;;;15.1;74.5
68965;BME280;56017;48.680;8.998;2023-04-23T15:27:58;95610;;;14.1;75.5
68965;BME280;56017;48.680;8.998;2023-04-23T15:30:28;95590;;;13.4;76.5
68965;BME280;56017;48.680;8.998;2023-04-23T15:32:53;95590;;;13.1;77.5
68965;BME280;56017;48.680;8.998;2023-04-23T15:35:24;95600;;;13.1;77.5
68965;BME280;56017;48.680;8.998;2023-04-23T15:37:55;95590;;;13.4;77.5
68965;BME280;56017;48.680;8.998;2023-04-23T15:40:26;95590;;;13.8;77
68965;BME280;56017;48.680;8.998;2023-04-23T15:43:03;95590;;;14.5;76.5
68965;BME280;56017;48.680;8.998;2023-04-23T15:45:27;95590;;;15;75.5
68965;BME280;56017;48.680;8.998;2023-04-23T15:48:05;95590;;;15.3;75
68965;BME280;56017;48.680;8.998;2023-04-23T15:50:36;95590;;;15.6;75
68965;BME280;56017;48.680;8.998;2023-04-23T15:53:07;95590;;;15.7;75
68965;BME280;56017;48.680;8.998;2023-04-23T15:55:31;95590;;;15.8;74.5
68965;BME280;56017;48.680;8.998;2023-04-23T15:58:02;95590;;;15.8;74
68965;BME280;56017;48.680;8.998;2023-04-23T16:00:33;95580;;;15.7;75
68965;BME280;56017;48.680;8.998;2023-04-23T16:03:04;95590;;;15.7;75
68965;BME280;56017;48.680;8.998;2023-04-23T16:05:35;95590;;;15.8;75
68965;BME280;56017;48.680;8.998;2023-04-23T16:08:06;95590;;;15.9;75
68965;BME280;56017;48.680;8.998;2023-04-23T16:10:37;95610;;;15.9;74.5
68965;BME280;56017;48.680;8.998;2023-04-23T16:13:08;95630;;;15.8;74
68965;BME280;56017;48.680;8.998;2023-04-23T16:15:41;95680;;;15.4;74